sensor_id;sensor_type;location;lat;lon;timestamp;P1;durP1;ratioP1;P2;durP2;ratioP2
66143;SDS011;52947;50.842;6.084;2023-03-05T00:00:27;5.93;;;1.52;;
66143;SDS011;52947;50.842;6.084;2023-03-05T00:02:55;6.15;;;1.30;;
66143;SDS011;52947;50.842;6.084;2023-03-05T00:05:23;4.85;;;1.27;;
66143;SDS011;52947;50.842;6.084;2023-03-05T00:07:51;7.20;;;1.40;;
66143;SDS011;52947;50.842;6.084;2023-03-05T00:10:18;4.13;;;1.45;;
66143;SDS011;52947;50.842;6.084;2023-03-05T00:12:48;9.45;;;1.65;;
66143;SDS011;52947;50.842;6.084;2023-03-05T00:15:16;3.90;;;1.80;;
66143;SDS011;52947;50.842;6.084;2023-03-05T00:17:44;6.47;;;1.35;;
66143;SDS011;52947;50.842;6.084;2023-03-05T00:20:12;6.65;;;1.85;;
66143;SDS011;52947;50.842;6.084;2023-03-05T00:22:40;6.33;;;1.43;;
66143;SDS011;52947;50.842;6.084;2023-03-05T00:25:08;10.55;;;1.70;;
66143;SDS011;52947;50.842;6.084;2023-03-05T00:27:36;3.75;;;1.42;;
66143;SDS011;52947;50.842;6.084;2023-03-05T00:30:08;4.30;;;1.30;;
66143;SDS011;52947;50.842;6.084;2023-03-05T00:32:37;4.93;;;1.50;;
66143;SDS011;52947;50.842;6.084;2023-03-05T00:35:06;4.53;;;1.80;;
66143;SDS011;52947;50.842;6.084;2023-03-05T00:37:34;7.63;;;1.67;;
66143;SDS011;52947;50.842;6.084;2023-03-05T00:40:02;2.03;;;1.17;;
66143;SDS011;52947;50.842;6.084;2023-03-05T00:42:31;4.68;;;1.38;;
66143;SDS011;52947;50.842;6.084;2023-03-05T00:45:04;5.65;;;1.23;;
66143;SDS011;52947;50.842;6.084;2023-03-05T00:50:03;5.65;;;1.58;;
66143;SDS011;52947;50.842;6.084;2023-03-05T00:52:32;5.90;;;1.48;;
66143;SDS011;52947;50.842;6.084;2023-03-05T00:55:01;4.57;;;1.40;;
66143;SDS011;52947;50.842;6.084;2023-03-05T00:57:29;7.40;;;1.52;;
66143;SDS011;52947;50.842;6.084;2023-03-05T00:59:57;6.20;;;1.17;;
66143;SDS011;52947;50.842;6.084;2023-03-05T01:02:25;4.93;;;1.60;;
66143;SDS011;52947;50.842;6.084;2023-03-05T01:04:54;6.10;;;1.60;;
66143;SDS011;52947;50.842;6.084;2023-03-05T01:09:50;5.47;;;1.70;;
66143;SDS011;52947;50.842;6.084;2023-03-05T01:12:18;3.10;;;1.70;;
66143;SDS011;52947;50.842;6.084;2023-03-05T01:14:46;10.68;;;1.83;;
66143;SDS011;52947;50.842;6.084;2023-03-05T01:17:13;4.97;;;1.63;;
66143;SDS011;52947;50.842;6.084;2023-03-05T01:19:42;2.75;;;1.52;;
66143;SDS011;52947;50.842;6.084;2023-03-05T01:22:11;10.15;;;2.40;;
66143;SDS011;52947;50.842;6.084;2023-03-05T01:24:39;10.95;;;1.85;;
66143;SDS011;52947;50.842;6.084;2023-03-05T01:27:07;7.07;;;1.60;;
66143;SDS011;52947;50.842;6.084;2023-03-05T01:29:35;7.35;;;1.90;;
66143;SDS011;52947;50.842;6.084;2023-03-05T01:32:04;5.25;;;1.48;;
66143;SDS011;52947;50.842;6.084;2023-03-05T01:34:32;5.20;;;1.77;;
66143;SDS011;52947;50.842;6.084;2023-03-05T01:37:02;9.55;;;1.88;;
66143;SDS011;52947;50.842;6.084;2023-03-05T01:39:31;5.55;;;1.45;;
66143;SDS011;52947;50.842;6.084;2023-03-05T01:41:59;4.32;;;1.40;;
66143;SDS011;52947;50.842;6.084;2023-03-05T01:44:28;7.93;;;1.77;;
66143;SDS011;52947;50.842;6.084;2023-03-05T01:46:57;7.30;;;1.98;;
66143;SDS011;52947;50.842;6.084;2023-03-05T01:49:25;8.88;;;1.90;;
66143;SDS011;52947;50.842;6.084;2023-03-05T01:51:59;6.95;;;1.90;;
66143;SDS011;52947;50.842;6.084;2023-03-05T01:54:33;8.27;;;1.92;;
66143;SDS011;52947;50.842;6.084;2023-03-05T01:57:05;6.88;;;1.70;;
66143;SDS011;52947;50.842;6.084;2023-03-05T01:59:36;7.15;;;1.80;;
66143;SDS011;52947;50.842;6.084;2023-03-05T02:02:07;5.78;;;1.77;;
66143;SDS011;52947;50.842;6.084;2023-03-05T02:04:36;9.00;;;2.10;;
66143;SDS011;52947;50.842;6.084;2023-03-05T02:07:08;8.07;;;1.70;;
66143;SDS011;52947;50.842;6.084;2023-03-05T02:09:41;5.40;;;1.75;;
66143;SDS011;52947;50.842;6.084;2023-03-05T02:12:09;9.15;;;2.08;;
66143;SDS011;52947;50.842;6.084;2023-03-05T02:14:38;4.07;;;1.38;;
66143;SDS011;52947;50.842;6.084;2023-03-05T02:17:09;11.55;;;2.10;;
66143;SDS011;52947;50.842;6.084;2023-03-05T02:19:45;5.90;;;1.40;;
66143;SDS011;52947;50.842;6.084;2023-03-05T02:22:15;8.18;;;1.80;;
66143;SDS011;52947;50.842;6.084;2023-03-05T02:24:44;6.40;;;1.70;;
66143;SDS011;52947;50.842;6.084;2023-03-05T02:27:13;6.80;;;1.90;;
66143;SDS011;52947;50.842;6.084;2023-03-05T02:29:43;7.10;;;1.80;;
66143;SDS011;52947;50.842;6.084;2023-03-05T02:32:12;7.10;;;1.73;;
66143;SDS011;52947;50.842;6.084;2023-03-05T02:34:40;9.98;;;2.20;;
66143;SDS011;52947;50.842;6.084;2023-03-05T02:37:08;8.52;;;1.65;;
66143;SDS011;52947;50.842;6.084;2023-03-05T02:39:38;4.93;;;1.52;;
66143;SDS011;52947;50.842;6.084;2023-03-05T02:42:07;10.18;;;2.80;;
66143;SDS011;52947;50.842;6.084;2023-03-05T02:44:36;6.45;;;1.70;;
66143;SDS011;52947;50.842;6.084;2023-03-05T02:47:04;6.57;;;2.30;;
66143;SDS011;52947;50.842;6.084;2023-03-05T02:49:33;8.52;;;2.10;;
66143;SDS011;52947;50.842;6.084;2023-03-05T02:52:02;6.97;;;2.08;;
66143;SDS011;52947;50.842;6.084;2023-03-05T02:54:30;8.60;;;2.05;;
66143;SDS011;52947;50.842;6.084;2023-03-05T02:56:59;9.18;;;2.20;;
66143;SDS011;52947;50.842;6.084;2023-03-05T02:59:27;6.05;;;1.80;;
66143;SDS011;52947;50.842;6.084;2023-03-05T03:01:55;12.90;;;2.20;;
66143;SDS011;52947;50.842;6.084;2023-03-05T03:04:23;8.27;;;2.38;;
66143;SDS011;52947;50.842;6.084;2023-03-05T03:06:51;7.30;;;2.22;;
66143;SDS011;52947;50.842;6.084;2023-03-05T03:09:19;10.88;;;2.17;;
66143;SDS011;52947;50.842;6.084;2023-03-05T03:11:47;7.18;;;1.95;;
66143;SDS011;52947;50.842;6.084;2023-03-05T03:14:16;6.50;;;1.75;;
66143;SDS011;52947;50.842;6.084;2023-03-05T03:16:46;9.07;;;2.47;;
66143;SDS011;52947;50.842;6.084;2023-03-05T03:19:14;12.88;;;2.55;;
66143;SDS011;52947;50.842;6.084;2023-03-05T03:21:42;6.32;;;2.00;;
66143;SDS011;52947;50.842;6.084;2023-03-05T03:24:10;16.77;;;2.30;;
66143;SDS011;52947;50.842;6.084;2023-03-05T03:26:38;12.75;;;2.58;;
66143;SDS011;52947;50.842;6.084;2023-03-05T03:29:06;7.97;;;2.22;;
66143;SDS011;52947;50.842;6.084;2023-03-05T03:31:35;8.45;;;2.47;;
66143;SDS011;52947;50.842;6.084;2023-03-05T03:34:06;9.82;;;2.65;;
66143;SDS011;52947;50.842;6.084;2023-03-05T03:36:34;8.02;;;2.55;;
66143;SDS011;52947;50.842;6.084;2023-03-05T03:39:02;5.53;;;2.22;;
66143;SDS011;52947;50.842;6.084;2023-03-05T03:41:31;8.82;;;2.60;;
66143;SDS011;52947;50.842;6.084;2023-03-05T03:43:59;8.00;;;2.37;;
66143;SDS011;52947;50.842;6.084;2023-03-05T03:46:28;15.68;;;2.55;;
66143;SDS011;52947;50.842;6.084;2023-03-05T03:48:57;6.53;;;2.45;;
66143;SDS011;52947;50.842;6.084;2023-03-05T03:51:25;9.57;;;2.47;;
66143;SDS011;52947;50.842;6.084;2023-03-05T03:53:53;6.32;;;2.50;;
66143;SDS011;52947;50.842;6.084;2023-03-05T03:56:22;8.68;;;2.58;;
66143;SDS011;52947;50.842;6.084;2023-03-05T03:58:50;8.02;;;2.75;;
66143;SDS011;52947;50.842;6.084;2023-03-05T04:01:18;6.13;;;2.43;;
66143;SDS011;52947;50.842;6.084;2023-03-05T04:03:46;8.65;;;2.10;;
66143;SDS011;52947;50.842;6.084;2023-03-05T04:06:16;8.85;;;3.03;;
66143;SDS011;52947;50.842;6.084;2023-03-05T04:08:44;8.73;;;2.60;;
66143;SDS011;52947;50.842;6.084;2023-03-05T04:11:11;7.65;;;2.53;;
66143;SDS011;52947;50.842;6.084;2023-03-05T04:13:41;7.30;;;3.33;;
66143;SDS011;52947;50.842;6.084;2023-03-05T04:16:08;14.32;;;2.83;;
66143;SDS011;52947;50.842;6.084;2023-03-05T04:18:36;11.25;;;2.75;;
66143;SDS011;52947;50.842;6.084;2023-03-05T04:21:04;7.28;;;2.17;;
66143;SDS011;52947;50.842;6.084;2023-03-05T04:23:36;6.85;;;2.13;;
66143;SDS011;52947;50.842;6.084;2023-03-05T04:26:04;7.78;;;2.38;;
66143;SDS011;52947;50.842;6.084;2023-03-05T04:28:32;7.28;;;2.00;;
66143;SDS011;52947;50.842;6.084;2023-03-05T04:31:00;5.85;;;2.38;;
66143;SDS011;52947;50.842;6.084;2023-03-05T04:33:29;6.72;;;2.47;;
66143;SDS011;52947;50.842;6.084;2023-03-05T04:35:57;11.68;;;2.60;;
66143;SDS011;52947;50.842;6.084;2023-03-05T04:38:25;8.05;;;3.20;;
66143;SDS011;52947;50.842;6.084;2023-03-05T04:40:54;6.55;;;2.50;;
66143;SDS011;52947;50.842;6.084;2023-03-05T04:43:22;8.23;;;2.15;;
66143;SDS011;52947;50.842;6.084;2023-03-05T04:45:50;13.85;;;2.63;;
66143;SDS011;52947;50.842;6.084;2023-03-05T04:48:17;6.45;;;2.10;;
66143;SDS011;52947;50.842;6.084;2023-03-05T04:50:45;11.80;;;2.50;;
66143;SDS011;52947;50.842;6.084;2023-03-05T04:53:13;7.32;;;2.47;;
66143;SDS011;52947;50.842;6.084;2023-03-05T04:55:41;10.38;;;2.40;;
66143;SDS011;52947;50.842;6.084;2023-03-05T04:58:11;6.65;;;2.03;;
66143;SDS011;52947;50.842;6.084;2023-03-05T05:00:39;7.90;;;2.15;;
66143;SDS011;52947;50.842;6.084;2023-03-05T05:03:07;11.27;;;2.83;;
66143;SDS011;52947;50.842;6.084;2023-03-05T05:05:35;5.93;;;2.30;;
66143;SDS011;52947;50.842;6.084;2023-03-05T05:08:03;6.95;;;2.00;;
66143;SDS011;52947;50.842;6.084;2023-03-05T05:10:31;7.90;;;2.17;;
66143;SDS011;52947;50.842;6.084;2023-03-05T05:12:59;11.65;;;2.50;;
66143;SDS011;52947;50.842;6.084;2023-03-05T05:15:28;14.60;;;2.80;;
66143;SDS011;52947;50.842;6.084;2023-03-05T05:17:57;7.28;;;2.53;;
66143;SDS011;52947;50.842;6.084;2023-03-05T05:20:25;8.82;;;2.15;;
66143;SDS011;52947;50.842;6.084;2023-03-05T05:22:53;7.68;;;2.60;;
66143;SDS011;52947;50.842;6.084;2023-03-05T05:25:21;7.35;;;2.13;;
66143;SDS011;52947;50.842;6.084;2023-03-05T05:27:48;8.77;;;2.20;;
66143;SDS011;52947;50.842;6.084;2023-03-05T05:30:16;6.40;;;2.10;;
66143;SDS011;52947;50.842;6.084;2023-03-05T05:32:45;8.00;;;2.60;;
66143;SDS011;52947;50.842;6.084;2023-03-05T05:35:13;9.07;;;2.15;;
66143;SDS011;52947;50.842;6.084;2023-03-05T05:37:41;5.45;;;2.13;;
66143;SDS011;52947;50.842;6.084;2023-03-05T05:40:10;6.60;;;2.10;;
66143;SDS011;52947;50.842;6.084;2023-03-05T05:42:38;7.63;;;2.45;;
66143;SDS011;52947;50.842;6.084;2023-03-05T05:45:06;10.38;;;2.20;;
66143;SDS011;52947;50.842;6.084;2023-03-05T05:47:35;9.43;;;2.47;;
66143;SDS011;52947;50.842;6.084;2023-03-05T05:50:05;6.35;;;2.50;;
66143;SDS011;52947;50.842;6.084;2023-03-05T05:52:33;8.95;;;2.10;;
66143;SDS011;52947;50.842;6.084;2023-03-05T05:55:01;7.20;;;2.08;;
66143;SDS011;52947;50.842;6.084;2023-03-05T05:57:30;10.57;;;2.47;;
66143;SDS011;52947;50.842;6.084;2023-03-05T05:59:58;8.27;;;1.90;;
66143;SDS011;52947;50.842;6.084;2023-03-05T06:02:26;4.88;;;2.15;;
66143;SDS011;52947;50.842;6.084;2023-03-05T06:04:53;8.10;;;2.53;;
66143;SDS011;52947;50.842;6.084;2023-03-05T06:07:25;10.63;;;2.22;;
66143;SDS011;52947;50.842;6.084;2023-03-05T06:09:53;7.35;;;1.85;;
66143;SDS011;52947;50.842;6.084;2023-03-05T06:12:20;9.57;;;2.30;;
66143;SDS011;52947;50.842;6.084;2023-03-05T06:14:48;8.43;;;2.13;;
66143;SDS011;52947;50.842;6.084;2023-03-05T06:17:16;3.63;;;1.80;;
66143;SDS011;52947;50.842;6.084;2023-03-05T06:19:55;10.50;;;2.47;;
66143;SDS011;52947;50.842;6.084;2023-03-05T06:22:25;6.80;;;2.58;;
66143;SDS011;52947;50.842;6.084;2023-03-05T06:24:53;5.35;;;2.38;;
66143;SDS011;52947;50.842;6.084;2023-03-05T06:27:21;5.45;;;2.25;;
66143;SDS011;52947;50.842;6.084;2023-03-05T06:29:50;7.07;;;2.53;;
66143;SDS011;52947;50.842;6.084;2023-03-05T06:32:19;7.60;;;1.90;;
66143;SDS011;52947;50.842;6.084;2023-03-05T06:34:47;8.70;;;1.95;;
66143;SDS011;52947;50.842;6.084;2023-03-05T06:37:15;10.27;;;2.55;;
66143;SDS011;52947;50.842;6.084;2023-03-05T06:39:44;10.73;;;2.08;;
66143;SDS011;52947;50.842;6.084;2023-03-05T06:42:12;3.95;;;1.80;;
66143;SDS011;52947;50.842;6.084;2023-03-05T06:44:40;9.65;;;2.88;;
66143;SDS011;52947;50.842;6.084;2023-03-05T06:47:08;8.70;;;2.35;;
66143;SDS011;52947;50.842;6.084;2023-03-05T06:49:36;11.30;;;2.97;;
66143;SDS011;52947;50.842;6.084;2023-03-05T06:52:05;7.88;;;2.50;;
66143;SDS011;52947;50.842;6.084;2023-03-05T06:54:35;6.43;;;2.40;;
66143;SDS011;52947;50.842;6.084;2023-03-05T06:57:04;9.82;;;2.40;;
66143;SDS011;52947;50.842;6.084;2023-03-05T06:59:32;6.90;;;2.47;;
66143;SDS011;52947;50.842;6.084;2023-03-05T07:02:00;8.35;;;2.70;;
66143;SDS011;52947;50.842;6.084;2023-03-05T07:04:28;16.77;;;4.35;;
66143;SDS011;52947;50.842;6.084;2023-03-05T07:06:56;6.03;;;2.83;;
66143;SDS011;52947;50.842;6.084;2023-03-05T07:09:25;9.32;;;2.78;;
66143;SDS011;52947;50.842;6.084;2023-03-05T07:11:53;10.88;;;2.47;;
66143;SDS011;52947;50.842;6.084;2023-03-05T07:14:22;7.80;;;2.60;;
66143;SDS011;52947;50.842;6.084;2023-03-05T07:16:50;7.80;;;2.78;;
66143;SDS011;52947;50.842;6.084;2023-03-05T07:19:18;11.07;;;3.13;;
66143;SDS011;52947;50.842;6.084;2023-03-05T07:21:46;4.93;;;2.67;;
66143;SDS011;52947;50.842;6.084;2023-03-05T07:24:14;9.77;;;3.13;;
66143;SDS011;52947;50.842;6.084;2023-03-05T07:26:42;9.77;;;2.90;;
66143;SDS011;52947;50.842;6.084;2023-03-05T07:29:09;5.03;;;2.53;;
66143;SDS011;52947;50.842;6.084;2023-03-05T07:31:39;6.18;;;2.42;;
66143;SDS011;52947;50.842;6.084;2023-03-05T07:34:08;6.78;;;3.08;;
66143;SDS011;52947;50.842;6.084;2023-03-05T07:36:36;5.78;;;2.38;;
66143;SDS011;52947;50.842;6.084;2023-03-05T07:39:04;8.52;;;2.38;;
66143;SDS011;52947;50.842;6.084;2023-03-05T07:41:32;5.88;;;3.20;;
66143;SDS011;52947;50.842;6.084;2023-03-05T07:44:00;8.07;;;2.92;;
66143;SDS011;52947;50.842;6.084;2023-03-05T07:46:29;6.78;;;2.40;;
66143;SDS011;52947;50.842;6.084;2023-03-05T07:49:00;8.23;;;2.78;;
66143;SDS011;52947;50.842;6.084;2023-03-05T07:51:28;3.38;;;1.90;;
66143;SDS011;52947;50.842;6.084;2023-03-05T07:53:57;8.02;;;2.63;;
66143;SDS011;52947;50.842;6.084;2023-03-05T07:56:26;11.00;;;2.63;;
66143;SDS011;52947;50.842;6.084;2023-03-05T07:58:57;7.65;;;2.92;;
66143;SDS011;52947;50.842;6.084;2023-03-05T08:01:25;6.32;;;2.28;;
66143;SDS011;52947;50.842;6.084;2023-03-05T08:03:53;13.60;;;2.60;;
66143;SDS011;52947;50.842;6.084;2023-03-05T08:06:22;6.47;;;2.53;;
66143;SDS011;52947;50.842;6.084;2023-03-05T08:11:18;8.75;;;3.17;;
66143;SDS011;52947;50.842;6.084;2023-03-05T08:13:46;5.82;;;2.53;;
66143;SDS011;52947;50.842;6.084;2023-03-05T08:16:15;5.82;;;3.10;;
66143;SDS011;52947;50.842;6.084;2023-03-05T08:18:45;5.35;;;2.40;;
66143;SDS011;52947;50.842;6.084;2023-03-05T08:21:15;8.88;;;2.85;;
66143;SDS011;52947;50.842;6.084;2023-03-05T08:23:45;7.70;;;2.70;;
66143;SDS011;52947;50.842;6.084;2023-03-05T08:26:13;7.93;;;2.22;;
66143;SDS011;52947;50.842;6.084;2023-03-05T08:28:43;9.15;;;3.08;;
66143;SDS011;52947;50.842;6.084;2023-03-05T08:31:11;9.05;;;2.88;;
66143;SDS011;52947;50.842;6.084;2023-03-05T08:33:40;6.95;;;2.90;;
66143;SDS011;52947;50.842;6.084;2023-03-05T08:36:09;11.38;;;3.47;;
66143;SDS011;52947;50.842;6.084;2023-03-05T08:38:37;7.43;;;2.67;;
66143;SDS011;52947;50.842;6.084;2023-03-05T08:41:06;6.68;;;2.45;;
66143;SDS011;52947;50.842;6.084;2023-03-05T08:46:02;9.27;;;3.08;;
66143;SDS011;52947;50.842;6.084;2023-03-05T08:48:30;12.15;;;4.10;;
66143;SDS011;52947;50.842;6.084;2023-03-05T08:51:03;7.90;;;3.40;;
66143;SDS011;52947;50.842;6.084;2023-03-05T08:53:31;9.85;;;3.42;;
66143;SDS011;52947;50.842;6.084;2023-03-05T08:55:59;6.97;;;3.90;;
66143;SDS011;52947;50.842;6.084;2023-03-05T08:58:29;9.32;;;3.55;;
66143;SDS011;52947;50.842;6.084;2023-03-05T09:00:57;8.00;;;3.42;;
66143;SDS011;52947;50.842;6.084;2023-03-05T09:03:25;10.63;;;4.70;;
66143;SDS011;52947;50.842;6.084;2023-03-05T09:05:53;17.25;;;4.63;;
66143;SDS011;52947;50.842;6.084;2023-03-05T09:08:25;9.60;;;4.13;;
66143;SDS011;52947;50.842;6.084;2023-03-05T09:10:54;9.23;;;3.63;;
66143;SDS011;52947;50.842;6.084;2023-03-05T09:13:22;7.45;;;3.78;;
66143;SDS011;52947;50.842;6.084;2023-03-05T09:15:55;13.75;;;4.15;;
66143;SDS011;52947;50.842;6.084;2023-03-05T09:18:24;13.95;;;4.28;;
66143;SDS011;52947;50.842;6.084;2023-03-05T09:20:52;8.23;;;3.42;;
66143;SDS011;52947;50.842;6.084;2023-03-05T09:23:20;7.10;;;3.75;;
66143;SDS011;52947;50.842;6.084;2023-03-05T09:25:49;9.90;;;3.42;;
66143;SDS011;52947;50.842;6.084;2023-03-05T09:28:17;10.43;;;3.58;;
66143;SDS011;52947;50.842;6.084;2023-03-05T09:30:45;10.85;;;3.80;;
66143;SDS011;52947;50.842;6.084;2023-03-05T09:33:14;8.35;;;3.50;;
66143;SDS011;52947;50.842;6.084;2023-03-05T09:35:42;12.43;;;4.65;;
66143;SDS011;52947;50.842;6.084;2023-03-05T09:38:10;11.27;;;3.70;;
66143;SDS011;52947;50.842;6.084;2023-03-05T09:40:41;10.60;;;4.10;;
66143;SDS011;52947;50.842;6.084;2023-03-05T09:43:15;10.35;;;4.82;;
66143;SDS011;52947;50.842;6.084;2023-03-05T09:45:57;13.10;;;5.28;;
66143;SDS011;52947;50.842;6.084;2023-03-05T09:48:45;9.18;;;5.38;;
66143;SDS011;52947;50.842;6.084;2023-03-05T09:51:17;9.60;;;4.20;;
66143;SDS011;52947;50.842;6.084;2023-03-05T09:53:49;7.85;;;4.13;;
66143;SDS011;52947;50.842;6.084;2023-03-05T09:56:24;8.48;;;4.38;;
66143;SDS011;52947;50.842;6.084;2023-03-05T09:58:56;10.55;;;3.90;;
66143;SDS011;52947;50.842;6.084;2023-03-05T10:01:29;8.38;;;4.28;;
66143;SDS011;52947;50.842;6.084;2023-03-05T10:04:08;9.65;;;5.65;;
66143;SDS011;52947;50.842;6.084;2023-03-05T10:06:39;8.02;;;4.82;;
66143;SDS011;52947;50.842;6.084;2023-03-05T10:09:14;9.23;;;5.88;;
66143;SDS011;52947;50.842;6.084;2023-03-05T10:11:49;13.60;;;7.18;;
66143;SDS011;52947;50.842;6.084;2023-03-05T10:14:23;8.38;;;5.68;;
66143;SDS011;52947;50.842;6.084;2023-03-05T10:23:26;14.15;;;7.30;;
66143;SDS011;52947;50.842;6.084;2023-03-05T10:25:58;10.88;;;5.55;;
66143;SDS011;52947;50.842;6.084;2023-03-05T10:28:36;8.75;;;5.47;;
66143;SDS011;52947;50.842;6.084;2023-03-05T10:31:24;10.75;;;4.80;;
66143;SDS011;52947;50.842;6.084;2023-03-05T10:34:23;9.88;;;4.95;;
66143;SDS011;52947;50.842;6.084;2023-03-05T10:37:17;8.20;;;4.63;;
66143;SDS011;52947;50.842;6.084;2023-03-05T10:40:00;9.20;;;4.47;;
66143;SDS011;52947;50.842;6.084;2023-03-05T10:42:43;9.80;;;4.70;;
66143;SDS011;52947;50.842;6.084;2023-03-05T10:45:17;8.25;;;4.60;;
66143;SDS011;52947;50.842;6.084;2023-03-05T10:47:50;6.45;;;3.45;;
66143;SDS011;52947;50.842;6.084;2023-03-05T10:50:22;9.05;;;3.95;;
66143;SDS011;52947;50.842;6.084;2023-03-05T10:53:05;6.28;;;3.50;;
66143;SDS011;52947;50.842;6.084;2023-03-05T10:55:40;8.55;;;3.85;;
66143;SDS011;52947;50.842;6.084;2023-03-05T10:58:09;5.72;;;3.30;;
66143;SDS011;52947;50.842;6.084;2023-03-05T11:00:39;7.30;;;3.25;;
66143;SDS011;52947;50.842;6.084;2023-03-05T11:03:23;4.45;;;3.00;;
66143;SDS011;52947;50.842;6.084;2023-03-05T11:05:53;8.57;;;3.17;;
66143;SDS011;52947;50.842;6.084;2023-03-05T11:08:29;5.68;;;3.20;;
66143;SDS011;52947;50.842;6.084;2023-03-05T11:13:51;6.57;;;2.75;;
66143;SDS011;52947;50.842;6.084;2023-03-05T11:16:22;6.70;;;3.58;;
66143;SDS011;52947;50.842;6.084;2023-03-05T11:21:43;7.55;;;3.03;;
66143;SDS011;52947;50.842;6.084;2023-03-05T11:24:12;5.80;;;3.17;;
66143;SDS011;52947;50.842;6.084;2023-03-05T11:26:46;6.07;;;2.83;;
66143;SDS011;52947;50.842;6.084;2023-03-05T11:29:17;4.32;;;2.53;;
66143;SDS011;52947;50.842;6.084;2023-03-05T11:31:47;7.10;;;2.63;;
66143;SDS011;52947;50.842;6.084;2023-03-05T11:34:23;6.93;;;2.70;;
66143;SDS011;52947;50.842;6.084;2023-03-05T11:37:02;4.78;;;2.70;;
66143;SDS011;52947;50.842;6.084;2023-03-05T11:39:32;5.55;;;2.50;;
66143;SDS011;52947;50.842;6.084;2023-03-05T11:42:05;5.30;;;3.10;;
66143;SDS011;52947;50.842;6.084;2023-03-05T11:44:42;5.40;;;3.15;;
66143;SDS011;52947;50.842;6.084;2023-03-05T11:47:16;5.00;;;2.80;;
66143;SDS011;52947;50.842;6.084;2023-03-05T11:49:50;6.57;;;2.65;;
66143;SDS011;52947;50.842;6.084;2023-03-05T11:52:21;3.28;;;2.30;;
66143;SDS011;52947;50.842;6.084;2023-03-05T11:54:55;2.90;;;2.50;;
66143;SDS011;52947;50.842;6.084;2023-03-05T11:57:32;5.80;;;2.70;;
66143;SDS011;52947;50.842;6.084;2023-03-05T12:00:12;5.28;;;2.38;;
66143;SDS011;52947;50.842;6.084;2023-03-05T12:02:42;8.13;;;2.83;;
66143;SDS011;52947;50.842;6.084;2023-03-05T12:05:13;4.53;;;2.63;;
66143;SDS011;52947;50.842;6.084;2023-03-05T12:07:41;7.45;;;2.83;;
66143;SDS011;52947;50.842;6.084;2023-03-05T12:10:14;6.80;;;3.35;;
66143;SDS011;52947;50.842;6.084;2023-03-05T12:12:46;5.05;;;2.13;;
66143;SDS011;52947;50.842;6.084;2023-03-05T12:15:34;6.30;;;2.80;;
66143;SDS011;52947;50.842;6.084;2023-03-05T12:18:13;4.65;;;2.92;;
66143;SDS011;52947;50.842;6.084;2023-03-05T12:20:48;5.43;;;2.50;;
66143;SDS011;52947;50.842;6.084;2023-03-05T12:23:23;10.25;;;3.80;;
66143;SDS011;52947;50.842;6.084;2023-03-05T12:25:53;5.85;;;3.05;;
66143;SDS011;52947;50.842;6.084;2023-03-05T12:31:36;5.78;;;2.85;;
66143;SDS011;52947;50.842;6.084;2023-03-05T12:34:33;6.93;;;3.40;;
66143;SDS011;52947;50.842;6.084;2023-03-05T12:37:03;4.72;;;2.80;;
66143;SDS011;52947;50.842;6.084;2023-03-05T12:42:42;5.32;;;3.25;;
66143;SDS011;52947;50.842;6.084;2023-03-05T12:45:34;5.65;;;3.30;;
66143;SDS011;52947;50.842;6.084;2023-03-05T12:51:28;6.63;;;3.10;;
66143;SDS011;52947;50.842;6.084;2023-03-05T12:56:58;6.95;;;3.00;;
66143;SDS011;52947;50.842;6.084;2023-03-05T12:59:28;6.95;;;3.40;;
66143;SDS011;52947;50.842;6.084;2023-03-05T13:02:12;10.57;;;4.13;;
66143;SDS011;52947;50.842;6.084;2023-03-05T13:04:47;8.27;;;4.13;;
66143;SDS011;52947;50.842;6.084;2023-03-05T13:07:18;6.43;;;3.63;;
66143;SDS011;52947;50.842;6.084;2023-03-05T13:09:52;6.05;;;4.40;;
66143;SDS011;52947;50.842;6.084;2023-03-05T13:12:21;10.52;;;4.90;;
66143;SDS011;52947;50.842;6.084;2023-03-05T13:17:27;5.82;;;4.00;;
66143;SDS011;52947;50.842;6.084;2023-03-05T13:20:23;6.95;;;3.50;;
66143;SDS011;52947;50.842;6.084;2023-03-05T13:23:12;6.10;;;4.27;;
66143;SDS011;52947;50.842;6.084;2023-03-05T13:25:42;5.55;;;3.55;;
66143;SDS011;52947;50.842;6.084;2023-03-05T13:28:12;5.45;;;3.65;;
66143;SDS011;52947;50.842;6.084;2023-03-05T13:30:43;6.85;;;4.22;;
66143;SDS011;52947;50.842;6.084;2023-03-05T13:33:15;8.15;;;4.00;;
66143;SDS011;52947;50.842;6.084;2023-03-05T13:35:45;5.28;;;4.00;;
66143;SDS011;52947;50.842;6.084;2023-03-05T13:38:17;9.17;;;4.37;;
66143;SDS011;52947;50.842;6.084;2023-03-05T13:41:03;6.10;;;3.88;;
66143;SDS011;52947;50.842;6.084;2023-03-05T13:43:32;7.68;;;4.43;;
66143;SDS011;52947;50.842;6.084;2023-03-05T13:46:01;9.27;;;4.90;;
66143;SDS011;52947;50.842;6.084;2023-03-05T13:48:30;6.57;;;4.93;;
66143;SDS011;52947;50.842;6.084;2023-03-05T13:50:58;6.53;;;4.32;;
66143;SDS011;52947;50.842;6.084;2023-03-05T13:53:26;7.82;;;4.57;;
66143;SDS011;52947;50.842;6.084;2023-03-05T13:55:56;7.95;;;5.05;;
66143;SDS011;52947;50.842;6.084;2023-03-05T13:58:44;7.18;;;4.75;;
66143;SDS011;52947;50.842;6.084;2023-03-05T14:01:21;6.75;;;4.28;;
66143;SDS011;52947;50.842;6.084;2023-03-05T14:03:55;5.90;;;3.92;;
66143;SDS011;52947;50.842;6.084;2023-03-05T14:06:25;8.85;;;5.22;;
66143;SDS011;52947;50.842;6.084;2023-03-05T14:09:00;8.60;;;5.10;;
66143;SDS011;52947;50.842;6.084;2023-03-05T14:11:32;8.93;;;4.93;;
66143;SDS011;52947;50.842;6.084;2023-03-05T14:14:04;9.68;;;4.82;;
66143;SDS011;52947;50.842;6.084;2023-03-05T14:16:34;6.93;;;5.07;;
66143;SDS011;52947;50.842;6.084;2023-03-05T14:19:03;6.40;;;4.72;;
66143;SDS011;52947;50.842;6.084;2023-03-05T14:21:44;8.40;;;4.60;;
66143;SDS011;52947;50.842;6.084;2023-03-05T14:24:18;7.90;;;4.65;;
66143;SDS011;52947;50.842;6.084;2023-03-05T14:26:50;7.38;;;4.07;;
66143;SDS011;52947;50.842;6.084;2023-03-05T14:29:20;7.03;;;4.40;;
66143;SDS011;52947;50.842;6.084;2023-03-05T14:31:50;6.80;;;4.60;;
66143;SDS011;52947;50.842;6.084;2023-03-05T14:34:23;10.60;;;4.20;;
66143;SDS011;52947;50.842;6.084;2023-03-05T14:36:54;7.28;;;4.32;;
66143;SDS011;52947;50.842;6.084;2023-03-05T14:39:25;8.13;;;3.92;;
66143;SDS011;52947;50.842;6.084;2023-03-05T14:44:52;8.18;;;4.93;;
66143;SDS011;52947;50.842;6.084;2023-03-05T14:47:21;6.82;;;4.32;;
66143;SDS011;52947;50.842;6.084;2023-03-05T14:49:50;8.57;;;4.38;;
66143;SDS011;52947;50.842;6.084;2023-03-05T14:54:47;8.57;;;4.53;;
66143;SDS011;52947;50.842;6.084;2023-03-05T14:57:17;7.47;;;4.57;;
66143;SDS011;52947;50.842;6.084;2023-03-05T14:59:47;7.00;;;4.43;;
66143;SDS011;52947;50.842;6.084;2023-03-05T15:02:16;5.93;;;4.15;;
66143;SDS011;52947;50.842;6.084;2023-03-05T15:04:46;5.90;;;4.38;;
66143;SDS011;52947;50.842;6.084;2023-03-05T15:07:19;7.15;;;4.63;;
66143;SDS011;52947;50.842;6.084;2023-03-05T15:09:50;5.45;;;3.85;;
66143;SDS011;52947;50.842;6.084;2023-03-05T15:12:18;9.27;;;3.53;;
66143;SDS011;52947;50.842;6.084;2023-03-05T15:14:50;5.32;;;3.17;;
66143;SDS011;52947;50.842;6.084;2023-03-05T15:17:20;6.70;;;3.20;;
66143;SDS011;52947;50.842;6.084;2023-03-05T15:19:49;7.57;;;3.40;;
66143;SDS011;52947;50.842;6.084;2023-03-05T15:22:20;5.30;;;3.25;;
66143;SDS011;52947;50.842;6.084;2023-03-05T15:27:16;5.15;;;3.08;;
66143;SDS011;52947;50.842;6.084;2023-03-05T15:29:44;4.72;;;3.30;;
66143;SDS011;52947;50.842;6.084;2023-03-05T15:32:12;4.75;;;3.50;;
66143;SDS011;52947;50.842;6.084;2023-03-05T15:34:40;4.32;;;3.03;;
66143;SDS011;52947;50.842;6.084;2023-03-05T15:37:08;5.85;;;3.22;;
66143;SDS011;52947;50.842;6.084;2023-03-05T15:39:37;4.20;;;2.50;;
66143;SDS011;52947;50.842;6.084;2023-03-05T15:42:05;3.85;;;2.90;;
66143;SDS011;52947;50.842;6.084;2023-03-05T15:44:33;5.22;;;3.00;;
66143;SDS011;52947;50.842;6.084;2023-03-05T15:47:01;5.18;;;3.22;;
66143;SDS011;52947;50.842;6.084;2023-03-05T15:49:29;5.68;;;2.60;;